createdAt,value
2018-07-23T00:01:58.622Z,99.90
2018-07-23T00:04:27.982Z,99.90
2018-07-23T00:06:56.260Z,99.90
2018-07-23T00:09:24.457Z,99.90
2018-07-23T00:11:52.644Z,99.90
2018-07-23T00:14:20.834Z,99.90
2018-07-23T00:16:49.061Z,99.90
2018-07-23T00:19:17.284Z,99.90
2018-07-23T00:21:45.478Z,99.90
2018-07-23T00:24:13.674Z,99.90
2018-07-23T00:26:41.910Z,99.90
2018-07-23T00:29:10.140Z,99.90
2018-07-23T00:31:38.368Z,99.90
2018-07-23T00:34:06.611Z,99.90
2018-07-23T00:36:34.879Z,99.90
2018-07-23T00:39:03.075Z,99.90
2018-07-23T00:41:31.264Z,99.90
2018-07-23T00:43:59.483Z,99.90
2018-07-23T00:46:27.708Z,99.90
2018-07-23T00:48:55.967Z,99.90
2018-07-23T00:51:24.168Z,99.90
2018-07-23T00:53:52.392Z,99.90
2018-07-23T00:56:20.589Z,99.90
2018-07-23T00:58:48.783Z,99.90
2018-07-23T01:01:22.576Z,99.90
2018-07-23T01:03:50.792Z,99.90
2018-07-23T01:06:19.012Z,99.90
2018-07-23T01:08:47.223Z,99.90
2018-07-23T01:11:15.452Z,99.90
2018-07-23T01:13:43.624Z,99.90
2018-07-23T01:16:11.831Z,99.90
2018-07-23T01:18:39.992Z,99.90
2018-07-23T01:21:08.237Z,99.90
2018-07-23T01:23:36.419Z,99.90
2018-07-23T01:26:04.644Z,99.90
2018-07-23T01:28:32.809Z,99.90
2018-07-23T01:31:01.000Z,99.90
2018-07-23T01:33:29.207Z,99.90
2018-07-23T01:35:57.416Z,99.90
2018-07-23T01:38:25.587Z,99.90
2018-07-23T01:40:53.784Z,99.90
2018-07-23T01:43:21.981Z,99.90
2018-07-23T01:45:50.186Z,99.90
2018-07-23T01:48:18.385Z,99.90
2018-07-23T01:50:46.631Z,99.90
2018-07-23T01:53:14.837Z,99.90
2018-07-23T01:55:43.027Z,99.90
2018-07-23T01:58:11.288Z,99.90
2018-07-23T02:00:39.559Z,99.90
2018-07-23T02:03:07.828Z,99.90
2018-07-23T02:05:36.056Z,99.90
2018-07-23T02:08:04.206Z,99.90
2018-07-23T02:10:32.457Z,99.90
2018-07-23T02:13:00.742Z,99.90
2018-07-23T02:15:28.916Z,99.90
2018-07-23T02:17:57.127Z,99.90
2018-07-23T02:20:25.371Z,99.90
2018-07-23T02:22:53.551Z,99.90
2018-07-23T02:25:21.755Z,99.90
2018-07-23T02:27:49.976Z,99.90
2018-07-23T02:30:18.156Z,99.90
2018-07-23T02:32:46.407Z,99.90
2018-07-23T02:35:14.624Z,99.90
2018-07-23T02:37:42.880Z,99.90
2018-07-23T02:40:11.072Z,99.90
2018-07-23T02:42:39.310Z,99.90
2018-07-23T02:45:07.521Z,99.90
2018-07-23T02:47:35.702Z,99.90
2018-07-23T02:50:03.918Z,99.90
2018-07-23T02:52:32.074Z,99.90
2018-07-23T02:55:00.239Z,99.90
2018-07-23T02:57:28.445Z,99.90
2018-07-23T02:59:56.624Z,99.90
2018-07-23T03:02:24.829Z,99.90
2018-07-23T03:04:53.009Z,99.90
2018-07-23T03:07:21.193Z,99.90
2018-07-23T03:09:49.392Z,99.90
2018-07-23T03:12:17.595Z,99.90
2018-07-23T03:14:45.872Z,99.90
2018-07-23T03:17:14.060Z,99.90
2018-07-23T03:19:42.240Z,99.90
2018-07-23T03:22:10.438Z,99.90
2018-07-23T03:24:38.589Z,99.90
2018-07-23T03:27:06.782Z,99.90
2018-07-23T03:29:34.953Z,99.90
2018-07-23T03:32:03.179Z,99.90
2018-07-23T03:34:31.347Z,99.90
2018-07-23T03:36:59.627Z,99.90
2018-07-23T03:39:27.804Z,99.90
2018-07-23T03:41:56.045Z,99.90
2018-07-23T03:44:24.235Z,99.90
2018-07-23T03:46:52.455Z,99.90
2018-07-23T03:49:20.650Z,99.90
2018-07-23T03:51:48.847Z,99.90
2018-07-23T03:54:17.222Z,99.90
2018-07-23T03:56:45.398Z,99.90
2018-07-23T03:59:13.840Z,99.90
2018-07-23T04:01:42.071Z,99.90
2018-07-23T04:04:10.265Z,99.90
2018-07-23T04:06:38.463Z,99.90
2018-07-23T04:09:08.090Z,99.90
2018-07-23T04:11:36.317Z,99.90
2018-07-23T04:14:04.524Z,99.90
2018-07-23T04:16:32.764Z,99.90
2018-07-23T04:19:00.954Z,99.90
2018-07-23T04:21:29.152Z,99.90
2018-07-23T04:23:57.383Z,99.90
2018-07-23T04:26:25.652Z,99.90
2018-07-23T04:28:54.047Z,99.90
2018-07-23T04:31:22.300Z,99.90
2018-07-23T04:33:50.493Z,99.90
2018-07-23T04:36:18.673Z,99.90
2018-07-23T04:38:46.904Z,99.90
2018-07-23T04:41:15.100Z,99.90
2018-07-23T04:43:43.350Z,99.90
2018-07-23T04:46:11.567Z,99.90
2018-07-23T04:48:39.880Z,99.90
2018-07-23T04:51:08.100Z,99.90
2018-07-23T04:53:36.368Z,99.90
2018-07-23T04:56:04.742Z,99.90
2018-07-23T04:58:33.041Z,99.90
2018-07-23T05:01:01.248Z,99.90
2018-07-23T05:03:29.469Z,99.90
2018-07-23T05:05:57.651Z,99.90
2018-07-23T05:08:25.885Z,99.90
2018-07-23T05:10:54.046Z,99.90
2018-07-23T05:13:22.265Z,99.90
2018-07-23T05:15:50.470Z,99.90
2018-07-23T05:18:18.679Z,99.90
2018-07-23T05:20:46.838Z,99.90
2018-07-23T05:23:15.012Z,99.90
2018-07-23T05:25:43.240Z,99.90
2018-07-23T05:28:11.420Z,99.90
2018-07-23T05:30:39.611Z,99.90
2018-07-23T05:33:07.822Z,99.90
2018-07-23T05:35:36.097Z,99.90
2018-07-23T05:38:04.367Z,99.90
2018-07-23T05:40:32.609Z,99.90
2018-07-23T05:43:00.827Z,99.90
2018-07-23T05:45:29.062Z,99.90
2018-07-23T05:47:57.263Z,99.90
2018-07-23T05:50:25.551Z,99.90
2018-07-23T05:52:53.833Z,99.90
2018-07-23T05:55:21.988Z,99.90
2018-07-23T05:57:50.329Z,99.90
2018-07-23T06:00:18.530Z,99.90
2018-07-23T06:02:47.208Z,99.90
2018-07-23T06:05:15.693Z,99.90
2018-07-23T06:07:44.130Z,99.90
2018-07-23T06:10:19.350Z,99.90
2018-07-23T06:12:50.597Z,99.90
2018-07-23T06:15:29.460Z,99.90
2018-07-23T06:17:59.810Z,99.90
2018-07-23T06:25:53.163Z,99.90
2018-07-23T06:28:21.904Z,99.90
2018-07-23T06:30:55.154Z,99.90
2018-07-23T06:33:25.011Z,99.90
2018-07-23T06:35:54.029Z,99.90
2018-07-23T06:38:22.184Z,99.90
2018-07-23T06:40:50.345Z,99.90
2018-07-23T06:43:18.554Z,99.90
2018-07-23T06:45:46.716Z,99.90
2018-07-23T06:48:14.880Z,99.90
2018-07-23T06:50:43.033Z,99.90
2018-07-23T06:53:11.259Z,99.90
2018-07-23T06:55:39.573Z,99.90
2018-07-23T06:58:07.835Z,99.90
2018-07-23T07:00:36.042Z,99.90
2018-07-23T07:03:05.579Z,99.90
2018-07-23T07:05:33.764Z,99.90
2018-07-23T07:08:01.916Z,99.90
2018-07-23T07:10:30.220Z,99.90
2018-07-23T07:12:58.387Z,99.90
2018-07-23T07:15:26.539Z,99.90
2018-07-23T07:17:54.701Z,99.90
2018-07-23T07:20:22.861Z,99.90
2018-07-23T07:22:51.289Z,99.90
2018-07-23T07:25:19.477Z,99.90
2018-07-23T07:27:47.696Z,99.90
2018-07-23T07:30:15.882Z,99.90
2018-07-23T07:32:44.048Z,99.90
2018-07-23T07:35:12.209Z,99.90
2018-07-23T07:37:40.351Z,99.90
2018-07-23T07:40:09.591Z,99.90
2018-07-23T07:42:37.790Z,99.90
2018-07-23T07:45:06.463Z,99.90
2018-07-23T07:47:34.711Z,99.90
2018-07-23T07:50:02.912Z,99.90
2018-07-23T07:52:31.127Z,99.90
2018-07-23T07:54:59.278Z,99.90
2018-07-23T07:57:27.484Z,99.90
2018-07-23T07:59:55.676Z,99.90
2018-07-23T08:02:23.840Z,99.90
2018-07-23T08:04:52.069Z,99.90
2018-07-23T08:07:20.219Z,99.90
2018-07-23T08:09:48.389Z,99.90
2018-07-23T08:12:16.544Z,99.90
2018-07-23T08:14:44.724Z,99.90
2018-07-23T08:17:12.924Z,99.90
2018-07-23T08:19:41.123Z,99.90
2018-07-23T08:22:09.277Z,99.90
2018-07-23T08:24:37.447Z,99.90
2018-07-23T08:27:06.537Z,99.90
2018-07-23T08:29:34.865Z,99.90
2018-07-23T08:32:03.238Z,99.90
2018-07-23T08:34:31.443Z,99.90
2018-07-23T08:36:59.644Z,99.90
2018-07-23T08:39:27.785Z,99.90
2018-07-23T08:41:55.964Z,99.90
2018-07-23T08:44:24.192Z,99.90
2018-07-23T08:46:52.480Z,99.90
2018-07-23T08:49:20.679Z,99.90
2018-07-23T08:51:48.827Z,99.90
2018-07-23T08:54:16.985Z,99.90
2018-07-23T08:56:45.154Z,99.90
2018-07-23T08:59:13.295Z,99.90
2018-07-23T09:01:41.464Z,99.90
2018-07-23T09:04:09.673Z,99.90
2018-07-23T09:06:37.852Z,99.90
2018-07-23T09:09:07.496Z,99.90
2018-07-23T09:11:35.734Z,99.90
2018-07-23T09:14:03.892Z,99.90
2018-07-23T09:16:32.053Z,99.90
2018-07-23T09:19:00.216Z,99.90
2018-07-23T09:21:28.382Z,99.90
2018-07-23T09:23:56.570Z,99.90
2018-07-23T09:26:24.726Z,99.90
2018-07-23T09:28:52.912Z,99.90
2018-07-23T09:31:21.061Z,99.90
2018-07-23T09:33:49.202Z,99.90
2018-07-23T09:36:17.368Z,99.90
2018-07-23T09:38:45.497Z,99.90
2018-07-23T09:41:13.666Z,99.90
2018-07-23T09:43:41.808Z,99.90
2018-07-23T09:46:10.013Z,99.90
2018-07-23T09:48:38.155Z,99.90
2018-07-23T09:51:06.383Z,99.90
2018-07-23T09:53:34.549Z,99.90
2018-07-23T09:56:02.716Z,99.90
2018-07-23T09:58:30.858Z,99.90
2018-07-23T10:01:04.353Z,99.90
2018-07-23T10:03:32.546Z,99.90
2018-07-23T10:06:00.705Z,99.90
2018-07-23T10:08:28.868Z,99.90
2018-07-23T10:10:57.349Z,99.90
2018-07-23T10:13:25.428Z,99.90
2018-07-23T10:15:53.588Z,99.90
2018-07-23T10:18:21.764Z,99.90
2018-07-23T10:20:49.962Z,99.90
2018-07-23T10:23:18.108Z,99.90
2018-07-23T10:25:46.319Z,99.90
2018-07-23T10:28:14.481Z,99.90
2018-07-23T10:30:42.627Z,99.90
2018-07-23T10:33:10.836Z,99.90
2018-07-23T10:35:38.988Z,99.90
2018-07-23T10:38:07.156Z,99.90
2018-07-23T10:40:35.320Z,99.90
2018-07-23T10:43:03.505Z,99.90
2018-07-23T10:45:31.728Z,99.90
2018-07-23T10:47:59.926Z,99.90
2018-07-23T10:50:28.078Z,99.90
2018-07-23T10:52:56.239Z,99.90
2018-07-23T10:55:24.403Z,99.80
2018-07-23T10:57:52.757Z,99.00
2018-07-23T11:00:20.929Z,98.90
2018-07-23T11:02:49.079Z,98.90
2018-07-23T11:05:17.231Z,99.20
2018-07-23T11:07:45.485Z,98.60
2018-07-23T11:10:13.748Z,98.20
2018-07-23T11:12:41.998Z,98.40
2018-07-23T11:15:10.255Z,98.70
2018-07-23T11:17:38.559Z,98.70
2018-07-23T11:20:08.958Z,98.70
2018-07-23T11:22:37.185Z,99.10
2018-07-23T11:25:38.414Z,99.00
2018-07-23T11:27:33.702Z,98.70
2018-07-23T11:30:01.898Z,98.90
2018-07-23T11:32:30.043Z,98.80
2018-07-23T11:34:58.279Z,98.60
2018-07-23T11:37:26.484Z,98.00
2018-07-23T11:39:54.632Z,97.80
2018-07-23T11:42:22.831Z,97.70
2018-07-23T11:44:51.052Z,97.70
2018-07-23T11:47:19.255Z,97.00
2018-07-23T11:49:47.456Z,97.10
2018-07-23T11:52:15.586Z,97.00
2018-07-23T11:54:43.744Z,97.50
2018-07-23T11:57:12.053Z,97.40
2018-07-23T11:59:40.195Z,96.80
2018-07-23T12:02:08.668Z,96.40
2018-07-23T12:04:37.114Z,96.80
2018-07-23T12:07:05.895Z,96.50
2018-07-23T12:09:34.097Z,96.40
2018-07-23T12:12:02.294Z,96.30
2018-07-23T12:14:30.474Z,96.10
2018-07-23T12:16:58.626Z,95.40
2018-07-23T12:19:26.773Z,95.70
2018-07-23T12:21:54.933Z,95.50
2018-07-23T12:24:23.238Z,95.50
2018-07-23T12:26:51.383Z,95.50
2018-07-23T12:29:19.587Z,95.50
2018-07-23T12:31:48.305Z,95.70
2018-07-23T12:34:16.459Z,95.50
2018-07-23T12:36:44.954Z,95.30
2018-07-23T12:39:13.370Z,95.10
2018-07-23T12:41:41.992Z,95.10
2018-07-23T12:44:10.393Z,95.20
2018-07-23T12:46:38.768Z,95.10
2018-07-23T12:49:07.072Z,94.20
2018-07-23T12:51:35.705Z,94.20
2018-07-23T12:54:04.068Z,93.60
2018-07-23T12:56:32.244Z,94.00
2018-07-23T12:59:04.665Z,93.90
2018-07-23T13:01:33.237Z,93.80
2018-07-23T13:04:01.412Z,93.50
2018-07-23T13:06:29.577Z,93.70
2018-07-23T13:08:57.752Z,93.60
2018-07-23T13:11:25.929Z,94.30
2018-07-23T13:13:54.211Z,94.00
2018-07-23T13:16:22.612Z,94.20
2018-07-23T13:18:50.822Z,94.20
2018-07-23T13:21:18.955Z,93.70
2018-07-23T13:23:47.106Z,93.60
2018-07-23T13:26:15.272Z,93.90
2018-07-23T13:28:43.458Z,93.10
2018-07-23T13:31:11.628Z,93.10
2018-07-23T13:33:39.781Z,93.40
2018-07-23T13:36:07.971Z,93.40
2018-07-23T13:38:36.468Z,93.60
2018-07-23T13:41:04.916Z,93.60
2018-07-23T13:43:33.093Z,93.70
2018-07-23T13:46:01.641Z,94.10
2018-07-23T13:48:29.834Z,94.10
2018-07-23T13:50:58.409Z,94.50
2018-07-23T13:53:26.558Z,94.60
2018-07-23T13:55:54.864Z,94.40
2018-07-23T13:58:23.053Z,94.60
2018-07-23T14:00:51.240Z,94.00
2018-07-23T14:03:19.544Z,94.10
2018-07-23T14:05:47.747Z,94.20
2018-07-23T14:08:16.145Z,94.70
2018-07-23T14:10:44.546Z,94.60
2018-07-23T14:13:16.162Z,94.40
2018-07-23T14:15:44.508Z,94.40
2018-07-23T14:18:12.680Z,94.40
2018-07-23T14:20:41.087Z,94.50
2018-07-23T14:23:09.271Z,94.70
2018-07-23T14:25:37.467Z,94.80
2018-07-23T14:28:05.798Z,94.70
2018-07-23T14:30:34.049Z,94.90
2018-07-23T14:33:02.337Z,94.90
2018-07-23T14:35:30.493Z,94.40
2018-07-23T14:37:58.736Z,94.10
2018-07-23T14:40:27.586Z,94.20
2018-07-23T14:42:56.187Z,94.20
2018-07-23T14:45:24.384Z,94.30
2018-07-23T14:47:52.689Z,94.40
2018-07-23T14:50:22.357Z,94.00
2018-07-23T14:52:50.729Z,94.00
2018-07-23T14:55:19.025Z,94.30
2018-07-23T14:57:47.437Z,94.40
2018-07-23T15:00:15.919Z,93.80
2018-07-23T15:02:47.748Z,93.40
2018-07-23T15:05:15.958Z,93.60
2018-07-23T15:10:35.200Z,93.10
2018-07-23T15:13:03.433Z,93.80
2018-07-23T15:15:31.704Z,93.60
2018-07-23T15:18:01.471Z,93.50
2018-07-23T15:20:29.784Z,93.60
2018-07-23T15:22:58.016Z,93.80
2018-07-23T15:25:26.232Z,93.70
2018-07-23T15:27:54.618Z,93.20
2018-07-23T15:30:22.835Z,93.50
2018-07-23T15:32:51.080Z,93.40
2018-07-23T15:35:19.293Z,93.50
2018-07-23T15:37:47.516Z,93.60
2018-07-23T15:40:16.154Z,93.20
2018-07-23T15:42:44.328Z,93.20
2018-07-23T15:45:12.812Z,92.80
2018-07-23T15:47:40.929Z,93.40
2018-07-23T15:50:09.543Z,93.10
2018-07-23T15:52:38.184Z,92.70
2018-07-23T15:55:06.666Z,93.10
2018-07-23T15:57:34.947Z,93.30
2018-07-23T16:00:03.208Z,93.40
2018-07-23T16:02:31.472Z,93.10
2018-07-23T16:04:59.717Z,93.40
2018-07-23T16:07:27.897Z,93.80
2018-07-23T16:09:56.140Z,93.20
2018-07-23T16:12:24.392Z,93.40
2018-07-23T16:14:52.577Z,93.60
2018-07-23T16:17:20.867Z,93.00
2018-07-23T16:19:49.187Z,92.80
2018-07-23T16:22:17.388Z,92.00
2018-07-23T16:24:45.576Z,92.00
2018-07-23T16:27:13.750Z,92.50
2018-07-23T16:29:45.785Z,92.70
2018-07-23T16:32:14.195Z,93.20
2018-07-23T16:34:42.407Z,92.70
2018-07-23T16:37:10.688Z,92.90
2018-07-23T16:39:39.100Z,92.70
2018-07-23T16:42:07.343Z,92.80
2018-07-23T16:44:35.624Z,92.60
2018-07-23T16:47:03.995Z,92.70
2018-07-23T16:52:00.619Z,92.90
2018-07-23T16:54:28.829Z,92.90
2018-07-23T16:56:56.987Z,92.70
2018-07-23T16:59:25.218Z,92.40
2018-07-23T17:01:53.471Z,92.60
2018-07-23T17:07:13.255Z,93.10
2018-07-23T17:09:44.094Z,92.80
2018-07-23T17:12:12.312Z,92.60
2018-07-23T17:14:40.480Z,92.60
2018-07-23T17:17:08.720Z,92.90
2018-07-23T17:19:36.917Z,92.80
2018-07-23T17:22:05.183Z,92.80
2018-07-23T17:24:33.415Z,92.90
2018-07-23T17:27:02.768Z,93.00
2018-07-23T17:29:31.043Z,92.80
2018-07-23T17:31:59.371Z,92.90
2018-07-23T17:34:27.584Z,92.80
2018-07-23T17:36:55.849Z,92.90
2018-07-23T17:39:24.127Z,93.20
2018-07-23T17:41:52.303Z,93.30
2018-07-23T17:44:20.522Z,93.30
2018-07-23T17:46:48.868Z,93.30
2018-07-23T17:49:17.078Z,93.30
2018-07-23T17:51:45.375Z,93.30
2018-07-23T17:54:13.720Z,93.10
2018-07-23T17:56:45.120Z,93.00
2018-07-23T17:59:13.440Z,93.00
2018-07-23T18:01:41.882Z,92.90
2018-07-23T18:04:10.136Z,93.00
2018-07-23T18:06:38.782Z,93.10
2018-07-23T18:09:09.265Z,92.90
2018-07-23T18:11:38.000Z,92.70
2018-07-23T18:14:06.330Z,92.90
2018-07-23T18:16:34.660Z,93.00
2018-07-23T18:19:03.073Z,93.10
2018-07-23T18:21:31.316Z,93.10
2018-07-23T18:23:59.937Z,92.90
2018-07-23T18:26:28.416Z,93.10
2018-07-23T18:28:56.860Z,92.80
2018-07-23T18:31:25.151Z,92.80
2018-07-23T18:33:53.432Z,92.40
2018-07-23T18:38:50.233Z,92.40
2018-07-23T18:41:18.896Z,92.30
2018-07-23T18:43:48.425Z,92.40
2018-07-23T18:46:17.086Z,92.40
2018-07-23T18:49:24.600Z,92.50
2018-07-23T18:51:53.695Z,92.60
2018-07-23T18:54:22.915Z,92.80
2018-07-23T18:56:52.980Z,92.90
2018-07-23T18:59:21.350Z,93.00
2018-07-23T19:01:50.757Z,93.10
2018-07-23T19:04:19.203Z,93.10
2018-07-23T19:06:47.941Z,93.20
2018-07-23T19:09:17.650Z,93.30
2018-07-23T19:11:47.119Z,93.40
2018-07-23T19:14:15.907Z,93.40
2018-07-23T19:16:44.630Z,93.80
2018-07-23T19:19:13.377Z,93.80
2018-07-23T19:21:41.616Z,93.80
2018-07-23T19:24:10.194Z,94.00
2018-07-23T19:26:38.771Z,94.40
2018-07-23T19:29:07.112Z,94.30
2018-07-23T19:31:35.739Z,94.40
2018-07-23T19:34:04.778Z,94.40
2018-07-23T19:36:33.162Z,94.40
2018-07-23T19:39:01.568Z,94.50
2018-07-23T19:41:30.270Z,94.60
2018-07-23T19:43:58.664Z,94.70
2018-07-23T19:46:27.308Z,94.80
2018-07-23T19:48:55.641Z,94.90
2018-07-23T19:51:23.955Z,95.00
2018-07-23T19:53:52.148Z,95.10
2018-07-23T19:56:20.471Z,95.20
2018-07-23T19:58:48.860Z,95.30
2018-07-23T20:01:18.190Z,95.50
2018-07-23T20:03:46.508Z,95.60
2018-07-23T20:06:15.032Z,95.80
2018-07-23T20:08:43.488Z,95.90
2018-07-23T20:11:11.893Z,96.00
2018-07-23T20:13:40.212Z,96.20
2018-07-23T20:16:08.504Z,96.40
2018-07-23T20:18:36.840Z,96.60
2018-07-23T20:21:05.173Z,96.80
2018-07-23T20:23:33.476Z,97.00
2018-07-23T20:26:01.738Z,97.10
2018-07-23T20:28:30.070Z,97.30
2018-07-23T20:30:58.432Z,97.50
2018-07-23T20:33:26.619Z,97.60
2018-07-23T20:35:54.920Z,97.80
2018-07-23T20:38:23.220Z,97.90
2018-07-23T20:40:51.421Z,98.10
2018-07-23T20:43:19.699Z,98.30
2018-07-23T20:45:47.895Z,98.50
2018-07-23T20:48:16.107Z,98.60
2018-07-23T20:50:44.339Z,98.80
2018-07-23T20:53:12.670Z,99.20
2018-07-23T20:55:40.848Z,99.30
2018-07-23T20:58:09.055Z,99.30
2018-07-23T21:00:37.240Z,99.40
2018-07-23T21:03:06.140Z,99.50
2018-07-23T21:05:34.467Z,99.70
2018-07-23T21:08:02.703Z,99.90
2018-07-23T21:10:30.863Z,99.90
2018-07-23T21:12:59.058Z,99.90
2018-07-23T21:15:28.276Z,99.90
2018-07-23T21:17:56.743Z,99.90
2018-07-23T21:20:25.064Z,99.90
2018-07-23T21:22:53.247Z,99.90
2018-07-23T21:25:21.520Z,99.90
2018-07-23T21:27:49.777Z,99.90
2018-07-23T21:30:17.919Z,99.90
2018-07-23T21:32:46.163Z,99.90
2018-07-23T21:35:14.372Z,99.90
2018-07-23T21:37:42.859Z,99.90
2018-07-23T21:42:39.884Z,99.90
2018-07-23T21:45:08.691Z,99.90
2018-07-23T21:47:37.408Z,99.90
2018-07-23T21:50:05.965Z,99.90
2018-07-23T21:52:36.578Z,99.90
2018-07-23T21:55:05.385Z,99.90
2018-07-23T21:57:33.576Z,99.90
2018-07-23T22:00:01.822Z,99.90
2018-07-23T22:02:30.232Z,99.90
2018-07-23T22:04:58.408Z,99.90
2018-07-23T22:07:26.582Z,99.90
2018-07-23T22:12:22.732Z,99.90
2018-07-23T22:14:50.937Z,99.90
2018-07-23T22:17:19.132Z,99.90
2018-07-23T22:19:47.344Z,99.90
2018-07-23T22:22:15.579Z,99.90
2018-07-23T22:24:43.864Z,99.90
2018-07-23T22:27:12.063Z,99.90
2018-07-23T22:29:40.303Z,99.90
2018-07-23T22:32:08.503Z,99.90
2018-07-23T22:34:36.748Z,99.90
2018-07-23T22:37:04.975Z,99.90
2018-07-23T22:39:33.152Z,99.90
2018-07-23T22:42:01.396Z,99.90
2018-07-23T22:44:29.579Z,99.90
2018-07-23T22:46:57.833Z,99.90
2018-07-23T22:49:26.003Z,99.90
2018-07-23T22:51:54.175Z,99.90
2018-07-23T22:54:22.389Z,99.90
2018-07-23T22:56:50.583Z,99.90
2018-07-23T22:59:18.758Z,99.90
2018-07-23T23:01:46.892Z,99.90
2018-07-23T23:04:15.037Z,99.90
2018-07-23T23:06:43.240Z,99.90
2018-07-23T23:09:11.465Z,99.90
2018-07-23T23:11:39.712Z,99.90
2018-07-23T23:14:07.937Z,99.90
2018-07-23T23:16:36.178Z,99.90
2018-07-23T23:19:04.382Z,99.90
2018-07-23T23:21:32.558Z,99.90
2018-07-23T23:24:00.768Z,99.90
2018-07-23T23:26:28.944Z,99.90
2018-07-23T23:31:25.095Z,99.90
2018-07-23T23:33:53.285Z,99.90
2018-07-23T23:36:21.530Z,99.90
2018-07-23T23:38:49.713Z,99.90
2018-07-23T23:41:17.896Z,99.90
2018-07-23T23:43:46.068Z,99.90
2018-07-23T23:48:42.205Z,99.90
2018-07-23T23:51:10.430Z,99.90
2018-07-23T23:53:38.644Z,99.90
2018-07-23T23:56:06.849Z,99.90
2018-07-23T23:58:35.173Z,99.90
